createdAt,value
2018-04-23T00:00:19.530Z,57.40
2018-04-23T00:02:47.229Z,56.20
2018-04-23T00:05:14.833Z,56.00
2018-04-23T00:07:42.422Z,56.00
2018-04-23T00:10:10.024Z,56.30
2018-04-23T00:12:37.640Z,56.00
2018-04-23T00:15:05.240Z,57.00
2018-04-23T00:17:32.893Z,57.30
2018-04-23T00:20:00.546Z,56.90
2018-04-23T00:22:28.146Z,56.70
2018-04-23T00:24:55.776Z,57.00
2018-04-23T00:27:23.414Z,56.90
2018-04-23T00:29:51.058Z,56.80
2018-04-23T00:32:19.403Z,57.10
2018-04-23T00:34:46.992Z,57.10
2018-04-23T00:37:15.364Z,56.80
2018-04-23T00:39:43.736Z,56.60
2018-04-23T00:42:11.352Z,56.60
2018-04-23T00:44:38.986Z,56.30
2018-04-23T00:47:06.592Z,56.30
2018-04-23T00:49:34.200Z,55.90
2018-04-23T00:52:02.732Z,55.90
2018-04-23T00:54:30.322Z,55.90
2018-04-23T00:56:57.954Z,56.00
2018-04-23T00:59:25.552Z,56.00
2018-04-23T01:01:53.954Z,56.80
2018-04-23T01:04:23.141Z,57.00
2018-04-23T01:06:50.752Z,56.90
2018-04-23T01:09:18.356Z,57.00
2018-04-23T01:11:46.758Z,56.90
2018-04-23T01:14:14.416Z,56.90
2018-04-23T01:16:42.044Z,56.90
2018-04-23T01:19:09.688Z,57.30
2018-04-23T01:21:37.296Z,57.80
2018-04-23T01:24:04.910Z,57.90
2018-04-23T01:26:32.522Z,57.70
2018-04-23T01:29:00.159Z,57.70
2018-04-23T01:31:27.797Z,57.80
2018-04-23T01:33:56.187Z,57.40
2018-04-23T01:36:23.839Z,57.30
2018-04-23T01:38:51.582Z,57.70
2018-04-23T01:41:19.208Z,58.00
2018-04-23T01:43:46.784Z,60.00
2018-04-23T01:46:14.415Z,59.50
2018-04-23T01:48:42.834Z,59.10
2018-04-23T01:51:10.442Z,59.10
2018-04-23T01:53:38.031Z,59.60
2018-04-23T01:56:05.634Z,59.50
2018-04-23T01:58:33.211Z,59.30
2018-04-23T02:01:00.813Z,59.40
2018-04-23T02:03:28.409Z,59.80
2018-04-23T02:05:56.020Z,59.50
2018-04-23T02:08:23.621Z,59.80
2018-04-23T02:10:51.744Z,60.30
2018-04-23T02:13:20.130Z,60.20
2018-04-23T02:15:48.529Z,60.30
2018-04-23T02:18:16.124Z,60.20
2018-04-23T02:20:43.683Z,61.00
2018-04-23T02:23:11.284Z,61.60
2018-04-23T02:25:39.672Z,61.30
2018-04-23T02:28:07.263Z,61.30
2018-04-23T02:30:34.849Z,59.30
2018-04-23T02:33:02.520Z,58.70
2018-04-23T02:35:30.891Z,58.50
2018-04-23T02:37:58.492Z,58.60
2018-04-23T02:40:26.830Z,58.50
2018-04-23T02:42:54.437Z,58.50
2018-04-23T02:45:22.077Z,58.60
2018-04-23T02:47:50.428Z,58.60
2018-04-23T02:50:17.999Z,58.50
2018-04-23T02:52:45.633Z,58.40
2018-04-23T02:55:13.215Z,58.30
2018-04-23T02:57:40.805Z,58.30
2018-04-23T03:00:09.151Z,58.40
2018-04-23T03:02:36.793Z,58.30
2018-04-23T03:05:04.395Z,58.40
2018-04-23T03:07:32.012Z,58.30
2018-04-23T03:09:59.620Z,58.20
2018-04-23T03:12:27.982Z,58.30
2018-04-23T03:14:55.626Z,58.20
2018-04-23T03:17:23.239Z,58.70
2018-04-23T03:19:50.885Z,59.00
2018-04-23T03:22:19.287Z,59.00
2018-04-23T03:24:46.881Z,58.90
2018-04-23T03:27:14.467Z,59.20
2018-04-23T03:29:42.111Z,59.30
2018-04-23T03:32:09.697Z,59.50
2018-04-23T03:34:38.077Z,59.30
2018-04-23T03:37:05.725Z,59.20
2018-04-23T03:39:33.279Z,59.10
2018-04-23T03:42:00.889Z,59.10
2018-04-23T03:44:28.537Z,59.30
2018-04-23T03:46:56.123Z,59.00
2018-04-23T03:49:23.733Z,59.80
2018-04-23T03:51:51.333Z,60.40
2018-04-23T03:54:18.999Z,60.80
2018-04-23T03:56:46.669Z,60.30
2018-04-23T03:59:14.305Z,60.40
2018-04-23T04:01:42.714Z,62.10
2018-04-23T04:04:10.301Z,62.10
2018-04-23T04:06:37.880Z,62.60
2018-04-23T04:09:06.280Z,62.50
2018-04-23T04:11:34.654Z,62.00
2018-04-23T04:14:14.900Z,62.70
2018-04-23T04:16:54.318Z,62.00
2018-04-23T04:19:21.935Z,62.20
2018-04-23T04:21:49.520Z,62.10
2018-04-23T04:24:17.135Z,62.00
2018-04-23T04:26:45.506Z,62.50
2018-04-23T04:29:14.823Z,63.30
2018-04-23T04:31:42.416Z,63.30
2018-04-23T04:34:10.028Z,63.60
2018-04-23T04:36:38.406Z,63.00
2018-04-23T04:39:06.765Z,63.00
2018-04-23T04:41:34.406Z,63.70
2018-04-23T04:44:02.035Z,63.10
2018-04-23T04:46:29.680Z,62.90
2018-04-23T04:48:58.118Z,63.30
2018-04-23T04:51:25.803Z,63.30
2018-04-23T04:53:53.406Z,63.60
2018-04-23T04:56:21.052Z,63.50
2018-04-23T04:58:48.942Z,63.30
2018-04-23T05:01:16.567Z,62.50
2018-04-23T05:03:44.996Z,61.90
2018-04-23T05:06:12.605Z,61.70
2018-04-23T05:08:40.990Z,61.50
2018-04-23T05:11:08.553Z,61.50
2018-04-23T05:13:40.904Z,60.70
2018-04-23T05:16:08.565Z,60.70
2018-04-23T05:18:36.214Z,60.50
2018-04-23T05:21:03.820Z,60.00
2018-04-23T05:23:31.444Z,59.90
2018-04-23T05:26:07.086Z,59.40
2018-04-23T05:28:34.680Z,59.60
2018-04-23T05:31:03.062Z,59.60
2018-04-23T05:33:31.454Z,59.60
2018-04-23T05:35:59.034Z,59.60
2018-04-23T05:38:26.620Z,59.60
2018-04-23T05:40:55.457Z,59.40
2018-04-23T05:43:23.063Z,59.60
2018-04-23T05:45:50.678Z,59.00
2018-04-23T05:48:18.334Z,58.60
2018-04-23T05:50:45.995Z,58.60
2018-04-23T05:53:14.462Z,58.00
2018-04-23T05:55:42.888Z,57.00
2018-04-23T05:58:10.461Z,56.80
2018-04-23T06:00:38.035Z,56.80
2018-04-23T06:03:05.753Z,56.50
2018-04-23T06:05:36.857Z,56.00
2018-04-23T06:08:04.649Z,55.90
2018-04-23T06:10:33.058Z,55.20
2018-04-23T06:13:00.924Z,55.10
2018-04-23T06:15:28.547Z,55.00
2018-04-23T06:17:56.895Z,54.70
2018-04-23T06:20:24.583Z,54.70
2018-04-23T06:22:53.003Z,53.10
2018-04-23T06:25:20.927Z,53.10
2018-04-23T06:27:49.358Z,50.40
2018-04-23T06:30:17.027Z,50.40
2018-04-23T06:32:44.656Z,49.70
2018-04-23T06:35:12.280Z,48.50
2018-04-23T06:37:39.900Z,47.30
2018-04-23T06:40:07.494Z,44.70
2018-04-23T06:42:35.056Z,45.30
2018-04-23T06:45:02.652Z,44.60
2018-04-23T06:47:30.550Z,45.30
2018-04-23T06:49:58.423Z,45.60
2018-04-23T06:52:26.101Z,44.80
2018-04-23T06:54:53.687Z,45.00
2018-04-23T06:57:22.059Z,44.80
2018-04-23T06:59:49.661Z,44.80
2018-04-23T07:02:17.294Z,45.70
2018-04-23T07:04:45.707Z,44.70
2018-04-23T07:07:13.280Z,44.60
2018-04-23T07:09:41.046Z,45.00
2018-04-23T07:12:08.727Z,44.60
2018-04-23T07:14:36.479Z,43.90
2018-04-23T07:17:04.196Z,44.70
2018-04-23T07:19:32.637Z,45.20
2018-04-23T07:22:00.299Z,45.20
2018-04-23T07:24:27.996Z,45.10
2018-04-23T07:26:56.389Z,44.30
2018-04-23T07:29:24.082Z,44.30
2018-04-23T07:31:51.713Z,44.00
2018-04-23T07:34:19.352Z,43.60
2018-04-23T07:36:47.794Z,42.90
2018-04-23T07:39:16.924Z,41.50
2018-04-23T07:41:44.522Z,41.60
2018-04-23T07:44:12.120Z,43.20
2018-04-23T07:46:39.775Z,42.90
2018-04-23T07:49:07.377Z,43.10
2018-04-23T07:51:35.753Z,43.70
2018-04-23T07:54:04.181Z,43.60
2018-04-23T07:56:31.843Z,43.50
2018-04-23T07:58:59.675Z,44.50
2018-04-23T08:01:27.787Z,44.40
2018-04-23T08:03:55.445Z,43.80
2018-04-23T08:06:23.054Z,43.30
2018-04-23T08:08:51.430Z,43.60
2018-04-23T08:11:19.797Z,44.40
2018-04-23T08:13:47.385Z,44.30
2018-04-23T08:16:15.050Z,43.40
2018-04-23T08:18:42.668Z,43.30
2018-04-23T08:21:10.329Z,43.60
2018-04-23T08:23:37.932Z,44.10
2018-04-23T08:26:06.291Z,43.20
2018-04-23T08:28:33.865Z,43.20
2018-04-23T08:31:02.346Z,44.70
2018-04-23T08:33:30.729Z,44.40
2018-04-23T08:35:59.133Z,44.70
2018-04-23T08:38:26.748Z,44.70
2018-04-23T08:40:54.341Z,45.30
2018-04-23T08:43:21.975Z,45.70
2018-04-23T08:45:49.605Z,45.50
2018-04-23T08:48:17.229Z,45.10
2018-04-23T08:50:44.847Z,46.10
2018-04-23T08:53:12.481Z,46.20
2018-04-23T08:55:40.063Z,45.50
2018-04-23T08:58:08.473Z,45.50
2018-04-23T09:00:36.848Z,44.50
2018-04-23T09:03:05.212Z,45.70
2018-04-23T09:05:32.858Z,45.80
2018-04-23T09:08:00.485Z,44.60
2018-04-23T09:10:28.128Z,45.40
2018-04-23T09:12:55.710Z,46.00
2018-04-23T09:15:23.370Z,44.00
2018-04-23T09:17:51.073Z,43.70
2018-04-23T09:20:18.670Z,43.60
2018-04-23T09:22:46.330Z,45.10
2018-04-23T09:25:13.939Z,44.80
2018-04-23T09:27:41.588Z,44.60
2018-04-23T09:30:09.227Z,44.90
2018-04-23T09:32:36.887Z,45.30
2018-04-23T09:35:07.323Z,46.20
2018-04-23T09:37:34.967Z,46.30
2018-04-23T09:40:02.951Z,45.60
2018-04-23T09:42:30.683Z,45.60
2018-04-23T09:44:59.145Z,45.80
2018-04-23T09:47:26.810Z,45.80
2018-04-23T09:49:55.189Z,46.50
2018-04-23T09:52:23.641Z,47.10
2018-04-23T09:54:51.224Z,47.00
2018-04-23T09:57:18.929Z,47.10
2018-04-23T09:59:46.596Z,47.60
2018-04-23T10:02:14.195Z,48.70
2018-04-23T10:04:41.890Z,50.80
2018-04-23T10:07:09.500Z,53.30
2018-04-23T10:09:37.587Z,54.70
2018-04-23T10:12:05.226Z,55.80
2018-04-23T10:14:32.836Z,56.70
2018-04-23T10:17:01.265Z,60.50
2018-04-23T10:19:28.861Z,60.50
2018-04-23T10:21:56.704Z,65.60
2018-04-23T10:24:24.362Z,67.90
2018-04-23T10:26:51.932Z,70.20
2018-04-23T10:29:19.573Z,71.90
2018-04-23T10:31:50.371Z,71.40
2018-04-23T10:34:18.752Z,71.80
2018-04-23T10:36:46.397Z,71.80
2018-04-23T10:39:14.818Z,71.10
2018-04-23T10:41:43.660Z,71.10
2018-04-23T10:44:12.071Z,72.80
2018-04-23T10:46:39.716Z,72.80
2018-04-23T10:49:07.365Z,74.00
2018-04-23T10:51:34.988Z,74.80
2018-04-23T10:54:02.638Z,76.40
2018-04-23T10:56:34.239Z,76.40
2018-04-23T10:59:01.871Z,77.10
2018-04-23T11:01:29.468Z,78.80
2018-04-23T11:03:58.150Z,79.50
2018-04-23T11:06:25.799Z,78.90
2018-04-23T11:08:53.420Z,79.10
2018-04-23T11:11:21.058Z,78.60
2018-04-23T11:13:49.470Z,78.60
2018-04-23T11:16:17.102Z,78.60
2018-04-23T11:18:44.757Z,78.50
2018-04-23T11:21:16.336Z,78.50
2018-04-23T11:23:44.008Z,78.40
2018-04-23T11:26:11.700Z,80.20
2018-04-23T11:28:39.304Z,79.00
2018-04-23T11:31:08.659Z,80.00
2018-04-23T11:33:36.727Z,80.00
2018-04-23T11:36:04.312Z,80.80
2018-04-23T11:38:31.924Z,80.50
2018-04-23T11:40:59.524Z,78.90
2018-04-23T11:43:27.171Z,77.70
2018-04-23T11:45:54.788Z,78.10
2018-04-23T11:48:22.359Z,75.90
2018-04-23T11:50:50.045Z,77.10
2018-04-23T11:53:17.646Z,76.50
2018-04-23T11:55:45.261Z,76.10
2018-04-23T11:58:12.944Z,74.50
2018-04-23T12:00:40.558Z,73.80
2018-04-23T12:03:08.193Z,74.50
2018-04-23T12:05:36.630Z,74.40
2018-04-23T12:08:04.266Z,74.40
2018-04-23T12:10:31.840Z,75.10
2018-04-23T12:12:59.467Z,74.00
2018-04-23T12:15:27.952Z,71.40
2018-04-23T12:18:04.128Z,71.40
2018-04-23T12:20:32.742Z,70.80
2018-04-23T12:23:00.332Z,70.70
2018-04-23T12:25:27.962Z,69.60
2018-04-23T12:27:55.563Z,66.70
2018-04-23T12:30:23.174Z,66.50
2018-04-23T12:32:50.811Z,66.20
2018-04-23T12:35:18.433Z,65.20
2018-04-23T12:37:46.029Z,66.00
2018-04-23T12:40:13.602Z,65.90
2018-04-23T12:42:41.239Z,66.80
2018-04-23T12:45:09.649Z,67.10
2018-04-23T12:47:37.231Z,67.10
2018-04-23T12:50:04.872Z,66.80
2018-04-23T12:52:32.665Z,62.80
2018-04-23T12:55:03.345Z,59.70
2018-04-23T12:57:31.699Z,57.10
2018-04-23T12:59:59.347Z,57.00
2018-04-23T13:02:27.753Z,55.20
2018-04-23T13:04:56.077Z,56.60
2018-04-23T13:07:40.517Z,56.50
2018-04-23T13:10:08.155Z,56.00
2018-04-23T13:12:39.643Z,56.20
2018-04-23T13:15:09.207Z,56.10
2018-04-23T13:17:37.615Z,56.20
2018-04-23T13:20:05.232Z,56.10
2018-04-23T13:22:32.834Z,53.60
2018-04-23T13:25:00.523Z,51.80
2018-04-23T13:27:28.137Z,51.60
2018-04-23T13:29:56.529Z,50.40
2018-04-23T13:32:24.144Z,50.30
2018-04-23T13:34:51.757Z,50.30
2018-04-23T13:37:19.373Z,50.90
2018-04-23T13:39:47.027Z,52.10
2018-04-23T13:42:18.774Z,52.40
2018-04-23T13:44:46.399Z,53.70
2018-04-23T13:47:24.667Z,53.00
2018-04-23T13:49:52.300Z,51.30
2018-04-23T13:52:19.936Z,51.50
2018-04-23T13:54:47.512Z,53.30
2018-04-23T13:57:15.178Z,52.30
2018-04-23T13:59:42.815Z,53.20
2018-04-23T14:02:10.483Z,54.30
2018-04-23T14:04:38.120Z,54.60
2018-04-23T14:07:06.528Z,54.20
2018-04-23T14:09:41.583Z,54.20
2018-04-23T14:12:09.209Z,54.90
2018-04-23T14:14:36.781Z,55.40
2018-04-23T14:17:09.244Z,55.90
2018-04-23T14:19:37.058Z,57.40
2018-04-23T14:22:04.811Z,56.50
2018-04-23T14:24:32.670Z,57.20
2018-04-23T14:27:00.303Z,57.70
2018-04-23T14:29:28.053Z,57.30
2018-04-23T14:32:04.351Z,57.60
2018-04-23T14:34:31.932Z,57.60
2018-04-23T14:36:59.508Z,57.60
2018-04-23T14:39:27.147Z,58.00
2018-04-23T14:41:54.766Z,58.20
2018-04-23T14:44:23.146Z,57.50
2018-04-23T14:46:51.598Z,58.10
2018-04-23T14:49:20.258Z,58.10
2018-04-23T14:51:47.877Z,58.70
2018-04-23T14:54:15.582Z,58.80
2018-04-23T14:56:43.174Z,58.40
2018-04-23T14:59:10.772Z,58.30
2018-04-23T15:01:38.381Z,58.20
2018-04-23T15:04:07.527Z,57.40
2018-04-23T15:06:52.392Z,57.40
2018-04-23T15:09:19.999Z,56.30
2018-04-23T15:11:47.601Z,54.90
2018-04-23T15:14:15.172Z,55.00
2018-04-23T15:16:42.771Z,53.90
2018-04-23T15:19:10.604Z,52.60
2018-04-23T15:21:39.168Z,51.70
2018-04-23T15:24:07.056Z,51.50
2018-04-23T15:26:38.120Z,52.40
2018-04-23T15:29:05.929Z,52.10
2018-04-23T15:31:38.714Z,52.10
2018-04-23T15:34:06.503Z,52.10
2018-04-23T15:36:34.145Z,52.50
2018-04-23T15:39:01.789Z,53.60
2018-04-23T15:41:29.388Z,54.20
2018-04-23T15:43:57.032Z,54.60
2018-04-23T15:46:24.710Z,54.50
2018-04-23T15:48:52.337Z,54.50
2018-04-23T15:51:27.891Z,54.30
2018-04-23T15:53:56.425Z,55.30
2018-04-23T15:56:24.090Z,55.20
2018-04-23T15:58:53.272Z,55.10
2018-04-23T16:01:21.798Z,55.00
2018-04-23T16:03:49.484Z,55.60
2018-04-23T16:06:18.290Z,56.10
2018-04-23T16:08:46.022Z,56.10
2018-04-23T16:11:13.680Z,56.40
2018-04-23T16:13:44.100Z,56.70
2018-04-23T16:16:13.466Z,56.70
2018-04-23T16:18:42.408Z,57.10
2018-04-23T16:21:10.015Z,56.90
2018-04-23T16:23:37.638Z,55.90
2018-04-23T16:26:09.098Z,56.30
2018-04-23T16:28:37.740Z,56.40
2018-04-23T16:31:05.332Z,55.90
2018-04-23T16:33:32.976Z,56.00
2018-04-23T16:36:00.657Z,56.20
2018-04-23T16:38:28.240Z,56.30
2018-04-23T16:40:55.846Z,56.90
2018-04-23T16:43:44.772Z,57.60
2018-04-23T16:46:13.165Z,58.70
2018-04-23T16:48:40.751Z,58.70
2018-04-23T16:51:09.187Z,59.20
2018-04-23T16:53:36.813Z,59.20
2018-04-23T16:56:04.467Z,59.60
2018-04-23T16:58:32.074Z,59.50
2018-04-23T17:01:00.468Z,58.60
2018-04-23T17:06:22.905Z,58.70
2018-04-23T17:08:58.731Z,58.10
2018-04-23T17:11:27.501Z,58.00
2018-04-23T17:13:55.105Z,59.00
2018-04-23T17:16:22.707Z,58.80
2018-04-23T17:18:52.325Z,59.00
2018-04-23T17:21:19.917Z,59.40
2018-04-23T17:23:53.877Z,59.90
2018-04-23T17:26:34.413Z,60.50
2018-04-23T17:29:02.772Z,60.80
2018-04-23T17:31:30.355Z,60.90
2018-04-23T17:33:58.752Z,60.50
2018-04-23T17:36:26.404Z,60.40
2018-04-23T17:38:54.026Z,60.70
2018-04-23T17:41:21.605Z,60.90
2018-04-23T17:43:49.188Z,61.40
2018-04-23T17:46:17.600Z,61.40
2018-04-23T17:48:45.258Z,61.30
2018-04-23T17:51:12.898Z,61.30
2018-04-23T17:53:40.483Z,61.40
2018-04-23T17:56:08.119Z,61.70
2018-04-23T17:58:35.873Z,62.90
2018-04-23T18:01:05.252Z,62.50
2018-04-23T18:03:32.873Z,62.40
2018-04-23T18:06:00.529Z,63.40
2018-04-23T18:08:28.151Z,63.30
2018-04-23T18:10:55.827Z,63.20
2018-04-23T18:13:38.317Z,63.40
2018-04-23T18:16:15.761Z,63.70
2018-04-23T18:18:45.357Z,63.60
2018-04-23T18:21:15.857Z,63.80
2018-04-23T18:23:44.234Z,64.50
2018-04-23T18:26:16.839Z,64.50
2018-04-23T18:28:45.260Z,64.90
2018-04-23T18:31:23.249Z,65.40
2018-04-23T18:33:58.633Z,64.70
2018-04-23T18:36:29.239Z,61.60
2018-04-23T18:38:57.634Z,60.80
2018-04-23T18:41:26.015Z,60.40
2018-04-23T18:43:59.445Z,60.20
2018-04-23T18:46:27.992Z,60.10
2018-04-23T18:49:05.491Z,60.80
2018-04-23T18:51:33.879Z,62.50
2018-04-23T18:54:12.685Z,61.00
2018-04-23T18:56:47.590Z,61.10
2018-04-23T18:59:15.399Z,59.00
2018-04-23T19:01:43.787Z,57.50
2018-04-23T19:04:30.822Z,57.50
2018-04-23T19:07:22.019Z,57.10
2018-04-23T19:09:50.717Z,57.00
2018-04-23T19:12:23.189Z,57.00
2018-04-23T19:14:55.125Z,56.90
2018-04-23T19:20:17.028Z,57.10
2018-04-23T19:22:44.609Z,57.20
2018-04-23T19:25:27.372Z,57.00
2018-04-23T19:27:54.984Z,57.00
2018-04-23T19:30:26.721Z,57.20
2018-04-23T19:33:02.284Z,56.80
2018-04-23T19:35:30.107Z,56.80
2018-04-23T19:37:57.821Z,56.60
2018-04-23T19:40:35.030Z,57.80
2018-04-23T19:43:09.813Z,57.80
2018-04-23T19:45:38.229Z,57.70
2018-04-23T19:48:10.206Z,57.70
2018-04-23T19:50:37.896Z,58.00
2018-04-23T19:53:05.499Z,57.90
2018-04-23T19:55:33.262Z,58.20
2018-04-23T19:58:00.868Z,58.30
2018-04-23T20:00:31.754Z,58.40
2018-04-23T20:03:00.072Z,58.90
2018-04-23T20:05:28.444Z,59.00
2018-04-23T20:07:56.861Z,59.00
2018-04-23T20:10:24.475Z,59.00
2018-04-23T20:12:52.312Z,59.10
2018-04-23T20:15:19.947Z,59.60
2018-04-23T20:17:47.562Z,59.30
2018-04-23T20:20:15.195Z,59.60
2018-04-23T20:22:42.755Z,59.70
2018-04-23T20:25:10.350Z,60.60
2018-04-23T20:27:37.934Z,61.40
2018-04-23T20:30:05.554Z,62.80
2018-04-23T20:32:33.240Z,63.00
2018-04-23T20:35:01.839Z,64.70
2018-04-23T20:37:29.529Z,64.70
2018-04-23T20:39:57.166Z,65.60
2018-04-23T20:42:24.764Z,66.20
2018-04-23T20:44:52.472Z,66.50
2018-04-23T20:47:20.870Z,67.70
2018-04-23T20:49:48.479Z,67.50
2018-04-23T20:52:16.054Z,68.20
2018-04-23T20:54:43.632Z,69.00
2018-04-23T20:57:12.069Z,70.40
2018-04-23T20:59:39.661Z,70.40
2018-04-23T21:02:07.207Z,71.10
2018-04-23T21:04:34.807Z,72.40
2018-04-23T21:07:02.397Z,72.30
2018-04-23T21:09:33.176Z,73.30
2018-04-23T21:12:01.590Z,74.20
2018-04-23T21:14:29.211Z,74.00
2018-04-23T21:16:57.720Z,74.80
2018-04-23T21:19:25.318Z,74.80
2018-04-23T21:21:54.890Z,75.00
2018-04-23T21:24:22.501Z,75.40
2018-04-23T21:26:50.124Z,75.50
2018-04-23T21:29:17.726Z,75.70
2018-04-23T21:31:45.314Z,76.10
2018-04-23T21:34:13.711Z,76.90
2018-04-23T21:36:41.332Z,76.80
2018-04-23T21:39:08.972Z,76.90
2018-04-23T21:41:36.626Z,76.90
2018-04-23T21:44:04.253Z,77.20
2018-04-23T21:46:31.812Z,77.30
2018-04-23T21:48:59.450Z,77.80
2018-04-23T21:51:33.392Z,77.90
2018-04-23T21:54:00.987Z,78.40
2018-04-23T21:56:28.575Z,78.60
2018-04-23T21:58:56.959Z,79.50
2018-04-23T22:01:24.615Z,79.50
2018-04-23T22:03:52.215Z,79.70
2018-04-23T22:06:19.807Z,80.10
2018-04-23T22:08:47.373Z,80.00
2018-04-23T22:11:14.990Z,80.40
2018-04-23T22:13:43.355Z,80.70
2018-04-23T22:16:11.731Z,80.90
2018-04-23T22:18:40.110Z,81.10
2018-04-23T22:21:08.484Z,81.00
2018-04-23T22:23:36.103Z,81.00
2018-04-23T22:26:03.742Z,81.30
2018-04-23T22:28:31.343Z,81.40
2018-04-23T22:30:58.935Z,81.50
2018-04-23T22:33:32.713Z,81.60
2018-04-23T22:36:00.285Z,82.00
2018-04-23T22:38:28.697Z,82.10
2018-04-23T22:40:56.313Z,82.10
2018-04-23T22:43:23.941Z,82.20
2018-04-23T22:45:51.591Z,82.40
2018-04-23T22:48:19.195Z,82.90
2018-04-23T22:50:46.813Z,82.90
2018-04-23T22:53:14.409Z,83.20
2018-04-23T22:55:42.057Z,83.50
2018-04-23T22:58:09.685Z,84.40
2018-04-23T23:00:37.300Z,83.70
2018-04-23T23:03:04.970Z,83.80
2018-04-23T23:05:32.590Z,83.80
2018-04-23T23:08:00.188Z,84.30
2018-04-23T23:10:27.803Z,84.20
2018-04-23T23:12:55.356Z,84.20
2018-04-23T23:15:22.975Z,84.20
2018-04-23T23:17:50.627Z,84.30
2018-04-23T23:20:18.258Z,84.40
2018-04-23T23:22:45.835Z,84.60
2018-04-23T23:25:13.467Z,84.80
2018-04-23T23:27:41.090Z,84.80
2018-04-23T23:30:09.482Z,85.00
2018-04-23T23:32:37.868Z,85.00
2018-04-23T23:35:05.498Z,85.00
2018-04-23T23:37:33.106Z,85.20
2018-04-23T23:40:00.674Z,85.30
2018-04-23T23:42:28.274Z,85.10
2018-04-23T23:44:55.876Z,85.40
2018-04-23T23:47:24.424Z,85.40
2018-04-23T23:49:52.012Z,85.40
2018-04-23T23:52:19.640Z,85.40
2018-04-23T23:54:47.241Z,85.30
2018-04-23T23:57:14.872Z,85.30
2018-04-23T23:59:42.559Z,85.30
